createdAt,value
2023-03-10T00:00:46.638Z,96077.47
2023-03-10T00:05:49.105Z,96067.44
2023-03-10T00:10:51.192Z,96048.66
2023-03-10T00:15:53.277Z,96023.19
2023-03-10T00:20:55.955Z,96025.25
2023-03-10T00:26:01.230Z,96023.06
2023-03-10T00:31:06.932Z,95997.78
2023-03-10T00:36:14.039Z,96001.44
2023-03-10T00:41:20.472Z,95970.69
2023-03-10T00:46:28.206Z,95976.16
2023-03-10T00:51:30.362Z,95965.25
2023-03-10T00:56:32.411Z,95967.25
2023-03-10T01:01:39.704Z,95958.88
2023-03-10T01:06:44.553Z,95956.28
2023-03-10T01:11:46.743Z,95951.41
2023-03-10T01:16:49.366Z,95939.88
2023-03-10T01:21:51.898Z,95922.16
2023-03-10T01:26:54.321Z,95933.53
2023-03-10T01:31:56.895Z,95921.56
2023-03-10T01:36:59.918Z,95921.94
2023-03-10T01:42:02.494Z,95908.56
2023-03-10T01:47:05.114Z,95907.59
2023-03-10T01:52:12.646Z,95899.88
2023-03-10T01:57:16.908Z,95905.22
2023-03-10T02:02:20.135Z,95894.16
2023-03-10T02:07:29.057Z,95884.19
2023-03-10T02:12:31.681Z,95882.94
2023-03-10T02:17:35.522Z,95870.06
2023-03-10T02:22:40.130Z,95871.63
2023-03-10T02:27:44.821Z,95880.19
2023-03-10T02:32:53.115Z,95860.59
2023-03-10T02:37:58.023Z,95862.25
2023-03-10T02:43:11.580Z,95870.78
2023-03-10T02:48:28.366Z,95865.78
2023-03-10T02:53:31.429Z,95853.78
2023-03-10T02:58:34.367Z,95857.19
2023-03-10T03:03:38.522Z,95851.78
2023-03-10T03:08:42.177Z,95852.00
2023-03-10T03:13:48.283Z,95857.59
2023-03-10T03:18:50.942Z,95856.28
2023-03-10T03:23:56.035Z,95855.91
2023-03-10T03:28:59.212Z,95847.84
2023-03-10T03:34:06.927Z,95835.53
2023-03-10T03:39:09.633Z,95812.91
2023-03-10T03:44:14.778Z,95820.94
2023-03-10T03:49:17.269Z,95819.06
2023-03-10T03:54:31.013Z,95823.00
2023-03-10T03:59:36.713Z,95813.44
2023-03-10T04:04:39.253Z,95811.34
2023-03-10T04:09:43.053Z,95814.75
2023-03-10T04:14:45.986Z,95805.94
2023-03-10T04:20:00.636Z,95783.28
2023-03-10T04:25:10.040Z,95796.59
2023-03-10T04:30:14.581Z,95797.16
2023-03-10T04:35:20.835Z,95800.88
2023-03-10T04:40:23.805Z,95794.22
2023-03-10T04:45:27.780Z,95789.44
2023-03-10T04:50:30.502Z,95795.66
2023-03-10T04:55:33.483Z,95784.00
2023-03-10T05:00:47.433Z,95790.06
2023-03-10T05:05:56.623Z,95780.53
2023-03-10T05:10:59.370Z,95754.59
2023-03-10T05:16:02.086Z,95761.06
2023-03-10T05:21:05.436Z,95751.81
2023-03-10T05:26:12.190Z,95748.00
2023-03-10T05:31:16.743Z,95730.31
2023-03-10T05:36:22.609Z,95733.63
2023-03-10T05:41:26.135Z,95745.66
2023-03-10T05:46:32.156Z,95748.66
2023-03-10T05:51:35.377Z,95741.84
2023-03-10T05:56:39.264Z,95728.31
2023-03-10T06:01:42.643Z,95705.19
2023-03-10T06:06:45.148Z,95706.47
2023-03-10T06:11:47.633Z,95702.00
2023-03-10T06:16:53.045Z,95717.91
2023-03-10T06:21:55.553Z,95717.28
2023-03-10T06:26:58.058Z,95693.97
2023-03-10T06:32:00.692Z,95684.81
2023-03-10T06:37:03.235Z,95668.59
2023-03-10T06:42:06.731Z,95632.25
2023-03-10T06:47:09.196Z,95653.69
2023-03-10T06:52:11.737Z,95646.00
2023-03-10T06:57:14.421Z,95648.22
2023-03-10T07:02:16.900Z,95655.16
2023-03-10T07:07:19.330Z,95658.13
2023-03-10T07:12:22.434Z,95659.38
2023-03-10T07:17:25.374Z,95661.25
2023-03-10T07:22:27.780Z,95659.13
2023-03-10T07:27:30.513Z,95666.69
2023-03-10T07:32:33.191Z,95677.66
2023-03-10T07:37:39.205Z,95687.78
2023-03-10T07:42:43.748Z,95687.13
2023-03-10T07:47:46.699Z,95687.47
2023-03-10T07:52:49.252Z,95688.94
2023-03-10T07:57:51.753Z,95705.22
2023-03-10T08:02:54.354Z,95704.88
2023-03-10T08:07:57.290Z,95714.66
2023-03-10T08:12:59.823Z,95724.13
2023-03-10T08:18:05.285Z,95740.72
2023-03-10T08:23:07.791Z,95708.38
2023-03-10T08:28:10.336Z,95712.25
2023-03-10T08:33:13.325Z,95730.38
2023-03-10T08:38:18.775Z,95744.72
2023-03-10T08:43:21.375Z,95740.16
2023-03-10T08:48:23.922Z,95746.53
2023-03-10T08:53:26.366Z,95749.75
2023-03-10T08:58:28.521Z,95743.41
2023-03-10T09:03:31.890Z,95755.00
2023-03-10T09:08:35.293Z,95755.34
2023-03-10T09:13:38.369Z,95759.03
2023-03-10T09:18:40.788Z,95754.06
2023-03-10T09:23:46.474Z,95759.06
2023-03-10T09:28:51.161Z,95746.75
2023-03-10T09:33:53.354Z,95762.34
2023-03-10T09:38:57.581Z,95754.00
2023-03-10T09:44:26.536Z,95764.13
2023-03-10T09:49:38.755Z,95767.38
2023-03-10T09:55:06.456Z,95763.31
2023-03-10T10:00:21.954Z,95770.03
2023-03-10T10:05:33.682Z,95754.69
2023-03-10T10:10:39.433Z,95756.44
2023-03-10T10:15:50.025Z,95768.25
2023-03-10T10:21:05.801Z,95763.31
2023-03-10T10:26:24.068Z,95757.06
2023-03-10T10:31:34.964Z,95755.69
2023-03-10T10:36:51.970Z,95757.19
2023-03-10T10:41:54.565Z,95763.94
2023-03-10T10:46:57.767Z,95755.59
2023-03-10T10:52:19.205Z,95756.41
2023-03-10T10:57:27.255Z,95753.03
2023-03-10T11:02:34.283Z,95752.22
2023-03-10T11:07:36.525Z,95754.03
2023-03-10T11:12:57.022Z,95760.63
2023-03-10T11:18:27.792Z,95771.44
2023-03-10T11:23:42.459Z,95777.28
2023-03-10T11:29:32.202Z,95780.78
2023-03-10T11:34:49.289Z,95824.84
2023-03-10T11:40:30.874Z,95782.59
2023-03-10T11:45:53.660Z,95794.50
2023-03-10T11:51:02.649Z,95787.78
2023-03-10T11:56:09.507Z,95794.28
2023-03-10T12:01:23.230Z,95783.31
2023-03-10T12:06:37.154Z,95781.06
2023-03-10T12:11:39.774Z,95772.28
2023-03-10T12:16:43.693Z,95772.03
2023-03-10T12:21:47.773Z,95763.75
2023-03-10T12:27:03.867Z,95781.06
2023-03-10T12:32:39.818Z,95780.69
2023-03-10T12:37:42.045Z,95772.00
2023-03-10T12:42:45.781Z,95781.69
2023-03-10T12:48:13.722Z,95788.25
2023-03-10T12:53:34.076Z,95794.50
2023-03-10T12:58:40.341Z,95778.19
2023-03-10T13:03:52.526Z,95783.13
2023-03-10T13:09:26.379Z,95799.31
2023-03-10T13:14:39.886Z,95779.38
2023-03-10T13:19:42.233Z,95780.25
2023-03-10T13:24:44.621Z,95797.63
2023-03-10T13:30:10.526Z,95789.22
2023-03-10T13:35:29.746Z,95812.00
2023-03-10T13:40:31.902Z,95814.22
2023-03-10T13:45:34.537Z,95801.44
2023-03-10T13:50:36.743Z,95823.16
2023-03-10T13:55:40.733Z,95799.13
2023-03-10T14:00:47.450Z,95815.53
2023-03-10T14:05:50.058Z,95797.97
2023-03-10T14:10:52.518Z,95802.28
2023-03-10T14:15:55.887Z,95814.09
2023-03-10T14:20:58.134Z,95827.13
2023-03-10T14:26:00.296Z,95840.75
2023-03-10T14:31:04.724Z,95862.78
2023-03-10T14:36:12.153Z,95883.88
2023-03-10T14:41:15.224Z,95874.63
2023-03-10T14:46:18.275Z,95885.06
2023-03-10T14:51:34.637Z,95892.03
2023-03-10T14:56:37.978Z,95907.28
2023-03-10T15:01:40.979Z,95907.38
2023-03-10T15:06:44.716Z,95922.47
2023-03-10T15:11:47.373Z,95911.34
2023-03-10T15:16:50.029Z,95944.16
2023-03-10T15:21:52.655Z,95976.66
2023-03-10T15:26:55.090Z,95996.69
2023-03-10T15:31:58.351Z,96002.53
2023-03-10T15:37:01.180Z,96012.38
2023-03-10T15:42:03.884Z,96025.09
2023-03-10T15:47:06.636Z,96033.84
2023-03-10T15:52:09.169Z,96024.16
2023-03-10T15:57:11.683Z,95997.53
2023-03-10T16:02:15.393Z,96005.66
2023-03-10T16:07:17.952Z,96007.09
2023-03-10T16:12:22.425Z,96014.03
2023-03-10T16:17:25.072Z,96032.09
2023-03-10T16:22:27.891Z,96038.38
2023-03-10T16:27:30.288Z,96030.34
2023-03-10T16:32:33.832Z,96051.78
2023-03-10T16:37:36.323Z,96085.88
2023-03-10T16:42:39.039Z,96114.09
2023-03-10T16:47:44.080Z,96142.56
2023-03-10T16:52:47.040Z,96119.41
2023-03-10T16:57:50.003Z,96109.19
2023-03-10T17:02:52.515Z,96104.38
2023-03-10T17:08:02.333Z,96127.25
2023-03-10T17:13:04.740Z,96125.72
2023-03-10T17:18:07.531Z,96111.13
2023-03-10T17:23:09.951Z,96134.28
2023-03-10T17:28:12.809Z,96135.34
2023-03-10T17:33:15.421Z,96134.91
2023-03-10T17:38:18.038Z,96146.47
2023-03-10T17:43:33.285Z,96117.28
2023-03-10T17:48:36.850Z,96110.25
2023-03-10T17:53:39.300Z,96127.97
2023-03-10T17:58:43.432Z,96142.28
2023-03-10T18:03:48.320Z,96194.75
2023-03-10T18:08:52.463Z,96203.91
2023-03-10T18:13:55.811Z,96207.09
2023-03-10T18:18:59.319Z,96192.78
2023-03-10T18:24:01.731Z,96197.94
2023-03-10T18:29:04.692Z,96198.50
2023-03-10T18:34:07.266Z,96192.44
2023-03-10T18:39:11.358Z,96192.31
2023-03-10T18:44:14.226Z,96236.66
2023-03-10T18:49:16.641Z,96301.47
2023-03-10T18:54:19.008Z,96276.97
2023-03-10T18:59:21.110Z,96286.56
2023-03-10T19:04:23.111Z,96317.09
2023-03-10T19:09:25.137Z,96326.38
2023-03-10T19:14:27.250Z,96308.91
2023-03-10T19:19:29.380Z,96283.50
2023-03-10T19:24:31.395Z,96315.47
2023-03-10T19:29:33.508Z,96331.88
2023-03-10T19:34:36.041Z,96328.03
2023-03-10T19:39:38.069Z,96337.84
2023-03-10T19:44:40.485Z,96340.41
2023-03-10T19:49:42.978Z,96353.75
2023-03-10T19:54:45.248Z,96370.63
2023-03-10T19:59:47.357Z,96391.75
2023-03-10T20:04:50.702Z,96417.94
2023-03-10T20:09:52.716Z,96461.84
2023-03-10T20:14:58.713Z,96459.31
2023-03-10T20:20:00.815Z,96476.25
2023-03-10T20:25:03.079Z,96479.84
2023-03-10T20:30:16.082Z,96478.19
2023-03-10T20:35:19.035Z,96501.53
2023-03-10T20:40:24.220Z,96500.06
2023-03-10T20:45:27.681Z,96523.38
2023-03-10T20:50:29.905Z,96585.78
2023-03-10T20:55:32.259Z,96619.06
2023-03-10T21:00:34.542Z,96661.47
2023-03-10T21:05:36.753Z,96688.28
2023-03-10T21:10:38.933Z,96703.09
2023-03-10T21:15:41.407Z,96689.97
2023-03-10T21:20:43.883Z,96724.44
2023-03-10T21:25:46.485Z,96743.53
2023-03-10T21:30:48.613Z,96756.09
2023-03-10T21:35:50.760Z,96770.41
2023-03-10T21:40:52.858Z,96770.09
2023-03-10T21:45:54.882Z,96765.16
2023-03-10T21:50:56.894Z,96788.84
2023-03-10T21:56:00.669Z,96802.78
2023-03-10T22:01:07.679Z,96806.88
2023-03-10T22:06:10.328Z,96800.69
2023-03-10T22:11:13.217Z,96820.41
2023-03-10T22:16:18.076Z,96818.81
2023-03-10T22:21:20.254Z,96820.88
2023-03-10T22:26:22.520Z,96818.69
2023-03-10T22:31:24.822Z,96831.00
2023-03-10T22:36:26.975Z,96854.56
2023-03-10T22:41:29.153Z,96840.47
2023-03-10T22:46:32.514Z,96846.16
2023-03-10T22:51:34.632Z,96862.72
2023-03-10T22:56:36.651Z,96880.63
2023-03-10T23:01:39.405Z,96888.44
2023-03-10T23:06:41.459Z,96890.16
2023-03-10T23:11:43.827Z,96895.28
2023-03-10T23:16:46.043Z,96911.81
2023-03-10T23:21:48.191Z,96906.63
2023-03-10T23:26:50.422Z,96922.91
2023-03-10T23:31:52.852Z,96923.50
2023-03-10T23:36:57.413Z,96921.81
2023-03-10T23:41:59.438Z,96909.13
2023-03-10T23:47:01.492Z,96911.50
2023-03-10T23:52:03.762Z,96916.53
2023-03-10T23:57:05.871Z,96926.41
